Famatina, Argentina
Current Conditions -  °F | °C
As of 5:00 AM on Tuesday 27 Jan 2015 (Local Time) from SANT Reporting Station
Thunderstorm Thunderstorm  
Wind Chill: 75°   Ceiling: 2000
Heat Index: 75°   Visibility: 2.5mi
Dew Point: 72°   Wind: 12mph
Humidity: 89%   Direction: 180°S
Pressure: 29.85"   Gusts: NA
Location:  28.92°S, 67.52°W
Report Text: SANT 270800Z 18010KT 4000 TS / RA BKN020 OVC030FEW040CB 24/22 Q1011
Loading
Personal Weather Stations






























Interactive Weather Map New forecast layout! Learn more

10-Day Weather Forecast

Advertisements
Track Severe Weather on mobile